sensor_id;sensor_type;location;lat;lon;timestamp;pressure;altitude;pressure_sealevel;temperature;humidity
32324;BME280;25666;44.350;9.222;2023-03-14T00:01:19;101089.09;;;13.88;100.00
32324;BME280;25666;44.350;9.222;2023-03-14T00:03:46;101089.09;;;13.88;100.00
32324;BME280;25666;44.350;9.222;2023-03-14T00:06:12;101089.19;;;13.92;100.00
32324;BME280;25666;44.350;9.222;2023-03-14T00:08:42;101090.63;;;13.86;100.00
32324;BME280;25666;44.350;9.222;2023-03-14T00:11:10;101081.88;;;13.87;100.00
32324;BME280;25666;44.350;9.222;2023-03-14T00:13:36;101067.59;;;13.92;100.00
32324;BME280;25666;44.350;9.222;2023-03-14T00:16:10;101077.97;;;13.92;100.00
32324;BME280;25666;44.350;9.222;2023-03-14T00:18:36;101076.34;;;13.91;100.00
32324;BME280;25666;44.350;9.222;2023-03-14T00:21:03;101063.56;;;13.90;100.00
32324;BME280;25666;44.350;9.222;2023-03-14T00:23:31;101076.00;;;13.92;100.00
32324;BME280;25666;44.350;9.222;2023-03-14T00:26:02;101072.75;;;13.90;100.00
32324;BME280;25666;44.350;9.222;2023-03-14T00:28:28;101070.31;;;13.89;100.00
32324;BME280;25666;44.350;9.222;2023-03-14T00:30:54;101081.50;;;13.89;100.00
32324;BME280;25666;44.350;9.222;2023-03-14T00:33:20;101076.34;;;13.91;100.00
32324;BME280;25666;44.350;9.222;2023-03-14T00:35:56;101069.88;;;13.87;100.00
32324;BME280;25666;44.350;9.222;2023-03-14T00:38:22;101074.75;;;13.90;100.00
32324;BME280;25666;44.350;9.222;2023-03-14T00:40:47;101070.84;;;13.94;100.00
32324;BME280;25666;44.350;9.222;2023-03-14T00:43:13;101060.75;;;13.90;100.00
32324;BME280;25666;44.350;9.222;2023-03-14T00:45:38;101062.44;;;13.94;100.00
32324;BME280;25666;44.350;9.222;2023-03-14T00:48:04;101053.97;;;13.91;100.00
32324;BME280;25666;44.350;9.222;2023-03-14T00:50:32;101047.63;;;13.94;100.00
32324;BME280;25666;44.350;9.222;2023-03-14T00:52:58;101034.09;;;13.96;100.00
32324;BME280;25666;44.350;9.222;2023-03-14T00:55:24;101023.19;;;13.91;100.00
32324;BME280;25666;44.350;9.222;2023-03-14T00:57:52;101023.72;;;13.97;100.00
32324;BME280;25666;44.350;9.222;2023-03-14T01:00:18;100999.19;;;13.90;100.00
32324;BME280;25666;44.350;9.222;2023-03-14T01:02:43;101002.81;;;13.90;100.00
32324;BME280;25666;44.350;9.222;2023-03-14T01:05:09;101002.72;;;13.87;100.00
32324;BME280;25666;44.350;9.222;2023-03-14T01:07:36;100992.41;;;13.91;100.00
32324;BME280;25666;44.350;9.222;2023-03-14T01:10:05;100991.97;;;13.89;100.00
32324;BME280;25666;44.350;9.222;2023-03-14T01:12:31;100983.66;;;13.92;100.00
32324;BME280;25666;44.350;9.222;2023-03-14T01:14:57;100988.13;;;13.97;100.00
32324;BME280;25666;44.350;9.222;2023-03-14T01:17:23;100980.63;;;14.01;100.00
32324;BME280;25666;44.350;9.222;2023-03-14T01:19:49;100987.41;;;14.00;100.00
32324;BME280;25666;44.350;9.222;2023-03-14T01:22:14;100983.00;;;13.99;100.00
32324;BME280;25666;44.350;9.222;2023-03-14T01:24:39;100990.94;;;13.97;100.00
32324;BME280;25666;44.350;9.222;2023-03-14T01:27:05;100972.97;;;13.98;100.00
32324;BME280;25666;44.350;9.222;2023-03-14T01:29:31;100975.69;;;13.94;100.00
32324;BME280;25666;44.350;9.222;2023-03-14T01:32:01;100968.63;;;14.01;100.00
32324;BME280;25666;44.350;9.222;2023-03-14T01:34:27;100964.22;;;14.00;100.00
32324;BME280;25666;44.350;9.222;2023-03-14T01:36:52;100966.28;;;14.03;100.00
32324;BME280;25666;44.350;9.222;2023-03-14T01:39:18;100949.84;;;14.01;100.00
32324;BME280;25666;44.350;9.222;2023-03-14T01:41:44;100928.84;;;13.91;100.00
32324;BME280;25666;44.350;9.222;2023-03-14T01:44:11;100943.75;;;13.95;100.00
32324;BME280;25666;44.350;9.222;2023-03-14T01:46:40;100916.50;;;13.92;100.00
32324;BME280;25666;44.350;9.222;2023-03-14T01:49:10;100914.00;;;13.87;100.00
32324;BME280;25666;44.350;9.222;2023-03-14T01:54:32;100900.44;;;13.89;100.00
32324;BME280;25666;44.350;9.222;2023-03-14T01:57:05;100879.59;;;13.87;100.00
32324;BME280;25666;44.350;9.222;2023-03-14T01:59:32;100871.28;;;13.90;100.00
32324;BME280;25666;44.350;9.222;2023-03-14T02:01:59;100848.03;;;13.86;100.00
32324;BME280;25666;44.350;9.222;2023-03-14T02:04:28;100836.31;;;13.81;100.00
32324;BME280;25666;44.350;9.222;2023-03-14T02:09:24;100818.34;;;13.82;100.00
32324;BME280;25666;44.350;9.222;2023-03-14T02:11:50;100817.91;;;13.80;100.00
32324;BME280;25666;44.350;9.222;2023-03-14T02:14:40;100839.91;;;13.81;100.00
32324;BME280;25666;44.350;9.222;2023-03-14T02:17:45;100809.88;;;13.78;100.00
32324;BME280;25666;44.350;9.222;2023-03-14T02:20:30;100792.34;;;13.81;100.00
32324;BME280;25666;44.350;9.222;2023-03-14T02:22:59;100782.34;;;13.80;100.00
32324;BME280;25666;44.350;9.222;2023-03-14T02:27:53;100796.09;;;13.89;100.00
32324;BME280;25666;44.350;9.222;2023-03-14T02:30:24;100789.69;;;13.88;100.00
32324;BME280;25666;44.350;9.222;2023-03-14T02:32:54;100773.09;;;13.99;100.00
32324;BME280;25666;44.350;9.222;2023-03-14T02:35:24;100773.84;;;13.96;100.00
32324;BME280;25666;44.350;9.222;2023-03-14T02:38:02;100761.16;;;14.02;100.00
32324;BME280;25666;44.350;9.222;2023-03-14T02:40:33;100747.09;;;13.99;100.00
32324;BME280;25666;44.350;9.222;2023-03-14T02:42:59;100740.69;;;13.98;100.00
32324;BME280;25666;44.350;9.222;2023-03-14T02:45:36;100736.66;;;13.95;100.00
32324;BME280;25666;44.350;9.222;2023-03-14T02:48:06;100749.16;;;14.02;100.00
32324;BME280;25666;44.350;9.222;2023-03-14T02:50:35;100755.13;;;14.00;100.00
32324;BME280;25666;44.350;9.222;2023-03-14T02:53:01;100733.09;;;13.99;100.00
32324;BME280;25666;44.350;9.222;2023-03-14T02:55:26;100699.72;;;13.86;100.00
32324;BME280;25666;44.350;9.222;2023-03-14T02:57:55;100712.41;;;13.80;100.00
32324;BME280;25666;44.350;9.222;2023-03-14T03:00:21;100730.31;;;13.76;100.00
32324;BME280;25666;44.350;9.222;2023-03-14T03:02:47;100711.84;;;13.71;100.00
32324;BME280;25666;44.350;9.222;2023-03-14T03:05:14;100719.72;;;13.66;100.00
32324;BME280;25666;44.350;9.222;2023-03-14T03:07:39;100711.41;;;13.69;100.00
32324;BME280;25666;44.350;9.222;2023-03-14T03:10:05;100735.25;;;13.63;100.00
32324;BME280;25666;44.350;9.222;2023-03-14T03:12:31;100721.66;;;13.62;100.00
32324;BME280;25666;44.350;9.222;2023-03-14T03:14:56;100724.75;;;13.57;100.00
32324;BME280;25666;44.350;9.222;2023-03-14T03:17:22;100718.88;;;13.62;100.00
32324;BME280;25666;44.350;9.222;2023-03-14T03:19:48;100714.03;;;13.59;100.00
32324;BME280;25666;44.350;9.222;2023-03-14T03:22:14;100735.25;;;13.63;100.00
32324;BME280;25666;44.350;9.222;2023-03-14T03:24:40;100724.53;;;13.65;100.00
32324;BME280;25666;44.350;9.222;2023-03-14T03:27:05;100706.94;;;13.65;100.00
32324;BME280;25666;44.350;9.222;2023-03-14T03:29:31;100696.97;;;13.67;100.00
32324;BME280;25666;44.350;9.222;2023-03-14T03:31:57;100677.84;;;13.69;100.00
32324;BME280;25666;44.350;9.222;2023-03-14T03:34:22;100659.13;;;13.73;100.00
32324;BME280;25666;44.350;9.222;2023-03-14T03:36:51;100632.59;;;13.64;100.00
32324;BME280;25666;44.350;9.222;2023-03-14T03:39:16;100637.06;;;13.68;100.00
32324;BME280;25666;44.350;9.222;2023-03-14T03:41:42;100647.88;;;13.70;100.00
32324;BME280;25666;44.350;9.222;2023-03-14T03:44:08;100643.47;;;13.69;100.00
32324;BME280;25666;44.350;9.222;2023-03-14T03:46:33;100646.78;;;13.74;100.00
32324;BME280;25666;44.350;9.222;2023-03-14T03:48:59;100633.13;;;13.73;100.00
32324;BME280;25666;44.350;9.222;2023-03-14T03:51:27;100637.56;;;13.74;100.00
32324;BME280;25666;44.350;9.222;2023-03-14T03:53:52;100645.56;;;13.75;100.00
32324;BME280;25666;44.350;9.222;2023-03-14T03:56:25;100644.41;;;13.76;100.00
32324;BME280;25666;44.350;9.222;2023-03-14T03:58:50;100634.00;;;13.77;100.00
32324;BME280;25666;44.350;9.222;2023-03-14T04:01:16;100617.22;;;13.77;100.00
32324;BME280;25666;44.350;9.222;2023-03-14T04:03:45;100602.06;;;13.78;100.00
32324;BME280;25666;44.350;9.222;2023-03-14T04:06:12;100594.03;;;13.76;100.00
32324;BME280;25666;44.350;9.222;2023-03-14T04:08:39;100593.28;;;13.79;100.00
32324;BME280;25666;44.350;9.222;2023-03-14T04:11:13;100591.31;;;13.80;100.00
32324;BME280;25666;44.350;9.222;2023-03-14T04:14:02;100592.13;;;13.80;100.00
32324;BME280;25666;44.350;9.222;2023-03-14T04:16:29;100579.00;;;13.84;100.00
32324;BME280;25666;44.350;9.222;2023-03-14T04:19:02;100561.47;;;13.87;100.00
32324;BME280;25666;44.350;9.222;2023-03-14T04:21:28;100545.03;;;13.86;100.00
32324;BME280;25666;44.350;9.222;2023-03-14T04:23:56;100552.06;;;13.76;100.00
32324;BME280;25666;44.350;9.222;2023-03-14T04:26:22;100560.47;;;13.76;100.00
32324;BME280;25666;44.350;9.222;2023-03-14T04:28:48;100557.56;;;13.69;100.00
32324;BME280;25666;44.350;9.222;2023-03-14T04:31:16;100573.97;;;13.71;100.00
32324;BME280;25666;44.350;9.222;2023-03-14T04:33:42;100585.16;;;13.71;100.00
32324;BME280;25666;44.350;9.222;2023-03-14T04:36:08;100590.75;;;13.71;100.00
32324;BME280;25666;44.350;9.222;2023-03-14T04:38:34;100582.72;;;13.69;100.00
32324;BME280;25666;44.350;9.222;2023-03-14T04:41:00;100599.41;;;13.62;100.00
32324;BME280;25666;44.350;9.222;2023-03-14T04:43:30;100593.69;;;13.55;100.00
32324;BME280;25666;44.350;9.222;2023-03-14T04:46:02;100590.09;;;13.55;100.00
32324;BME280;25666;44.350;9.222;2023-03-14T04:48:28;100596.84;;;13.54;100.00
32324;BME280;25666;44.350;9.222;2023-03-14T04:50:55;100584.13;;;13.56;100.00
32324;BME280;25666;44.350;9.222;2023-03-14T04:53:20;100578.97;;;13.58;100.00
32324;BME280;25666;44.350;9.222;2023-03-14T04:55:53;100581.44;;;13.63;100.00
32324;BME280;25666;44.350;9.222;2023-03-14T04:58:20;100581.88;;;13.65;100.00
32324;BME280;25666;44.350;9.222;2023-03-14T05:00:48;100572.22;;;13.63;100.00
32324;BME280;25666;44.350;9.222;2023-03-14T05:03:32;100564.91;;;13.55;100.00
32324;BME280;25666;44.350;9.222;2023-03-14T05:06:10;100565.72;;;13.55;100.00
32324;BME280;25666;44.350;9.222;2023-03-14T05:08:43;100572.50;;;13.54;100.00
32324;BME280;25666;44.350;9.222;2023-03-14T05:11:19;100572.13;;;13.56;100.00
32324;BME280;25666;44.350;9.222;2023-03-14T05:13:56;100565.34;;;13.57;100.00
32324;BME280;25666;44.350;9.222;2023-03-14T05:16:40;100561.19;;;13.47;100.00
32324;BME280;25666;44.350;9.222;2023-03-14T05:19:20;100556.53;;;13.55;100.00
32324;BME280;25666;44.350;9.222;2023-03-14T05:22:04;100550.63;;;13.60;100.00
32324;BME280;25666;44.350;9.222;2023-03-14T05:24:52;100550.53;;;13.53;100.00
32324;BME280;25666;44.350;9.222;2023-03-14T05:27:38;100543.78;;;13.57;100.00
32324;BME280;25666;44.350;9.222;2023-03-14T05:30:19;100542.66;;;13.62;100.00
32324;BME280;25666;44.350;9.222;2023-03-14T05:33:05;100535.19;;;13.69;100.00
32324;BME280;25666;44.350;9.222;2023-03-14T05:35:45;100526.66;;;13.59;100.00
32324;BME280;25666;44.350;9.222;2023-03-14T05:38:31;100517.97;;;13.67;100.00
32324;BME280;25666;44.350;9.222;2023-03-14T05:41:16;100509.88;;;13.59;100.00
32324;BME280;25666;44.350;9.222;2023-03-14T05:44:00;100501.94;;;13.64;100.00
32324;BME280;25666;44.350;9.222;2023-03-14T05:46:31;100496.25;;;13.57;100.00
32324;BME280;25666;44.350;9.222;2023-03-14T05:49:20;100492.75;;;13.64;100.00
32324;BME280;25666;44.350;9.222;2023-03-14T05:52:01;100501.94;;;13.64;100.00
32324;BME280;25666;44.350;9.222;2023-03-14T05:55:03;100503.63;;;13.69;100.00
32324;BME280;25666;44.350;9.222;2023-03-14T05:57:45;100505.97;;;13.67;100.00
32324;BME280;25666;44.350;9.222;2023-03-14T06:00:31;100499.22;;;13.68;100.00
32324;BME280;25666;44.350;9.222;2023-03-14T06:03:10;100491.25;;;13.70;100.00
32324;BME280;25666;44.350;9.222;2023-03-14T06:05:41;100483.59;;;13.67;100.00
32324;BME280;25666;44.350;9.222;2023-03-14T06:08:06;100479.69;;;13.71;100.00
32324;BME280;25666;44.350;9.222;2023-03-14T06:10:32;100470.59;;;13.78;100.00
32324;BME280;25666;44.350;9.222;2023-03-14T06:13:17;100461.75;;;13.76;100.00
32324;BME280;25666;44.350;9.222;2023-03-14T06:15:42;100466.53;;;13.75;100.00
32324;BME280;25666;44.350;9.222;2023-03-14T06:18:08;100469.72;;;13.74;100.00
32324;BME280;25666;44.350;9.222;2023-03-14T06:20:38;100471.78;;;13.77;100.00
32324;BME280;25666;44.350;9.222;2023-03-14T06:23:06;100476.59;;;13.80;100.00
32324;BME280;25666;44.350;9.222;2023-03-14T06:25:33;100475.03;;;13.82;100.00
32324;BME280;25666;44.350;9.222;2023-03-14T06:27:59;100476.97;;;13.78;100.00
32324;BME280;25666;44.350;9.222;2023-03-14T06:30:24;100480.28;;;13.84;100.00
32324;BME280;25666;44.350;9.222;2023-03-14T06:32:51;100467.09;;;13.84;100.00
32324;BME280;25666;44.350;9.222;2023-03-14T06:35:19;100468.72;;;13.89;100.00
32324;BME280;25666;44.350;9.222;2023-03-14T06:37:44;100474.75;;;13.91;100.00
32324;BME280;25666;44.350;9.222;2023-03-14T06:40:11;100468.78;;;13.92;100.00
32324;BME280;25666;44.350;9.222;2023-03-14T06:42:51;100466.44;;;13.98;100.00
32324;BME280;25666;44.350;9.222;2023-03-14T06:45:19;100473.72;;;14.03;100.00
32324;BME280;25666;44.350;9.222;2023-03-14T06:47:45;100480.50;;;14.02;100.00
32324;BME280;25666;44.350;9.222;2023-03-14T06:50:12;100479.72;;;14.05;100.00
32324;BME280;25666;44.350;9.222;2023-03-14T06:52:38;100479.38;;;14.10;100.00
32324;BME280;25666;44.350;9.222;2023-03-14T06:55:14;100475.88;;;14.16;100.00
32324;BME280;25666;44.350;9.222;2023-03-14T06:57:41;100472.75;;;14.21;100.00
32324;BME280;25666;44.350;9.222;2023-03-14T07:00:07;100466.59;;;14.09;100.00
32324;BME280;25666;44.350;9.222;2023-03-14T07:02:34;100480.66;;;14.12;100.00
32324;BME280;25666;44.350;9.222;2023-03-14T07:05:01;100469.34;;;14.05;100.00
32324;BME280;25666;44.350;9.222;2023-03-14T07:07:27;100466.59;;;14.09;100.00
32324;BME280;25666;44.350;9.222;2023-03-14T07:09:52;100462.56;;;14.06;100.00
32324;BME280;25666;44.350;9.222;2023-03-14T07:12:18;100454.19;;;14.06;100.00
32324;BME280;25666;44.350;9.222;2023-03-14T07:14:43;100450.63;;;14.13;100.00
32324;BME280;25666;44.350;9.222;2023-03-14T07:17:09;100470.16;;;14.06;100.00
32324;BME280;25666;44.350;9.222;2023-03-14T07:19:34;100460.16;;;14.05;100.00
32324;BME280;25666;44.350;9.222;2023-03-14T07:22:00;100453.41;;;14.09;100.00
32324;BME280;25666;44.350;9.222;2023-03-14T07:24:27;100452.84;;;13.97;100.00
32324;BME280;25666;44.350;9.222;2023-03-14T07:26:53;100452.91;;;14.00;100.00
32324;BME280;25666;44.350;9.222;2023-03-14T07:29:18;100460.28;;;13.85;100.00
32324;BME280;25666;44.350;9.222;2023-03-14T07:31:44;100459.13;;;13.86;100.00
32324;BME280;25666;44.350;9.222;2023-03-14T07:34:10;100459.44;;;13.81;100.00
32324;BME280;25666;44.350;9.222;2023-03-14T07:36:39;100467.94;;;13.88;100.00
32324;BME280;25666;44.350;9.222;2023-03-14T07:39:04;100473.47;;;13.85;100.00
32324;BME280;25666;44.350;9.222;2023-03-14T07:41:36;100461.50;;;13.88;100.00
32324;BME280;25666;44.350;9.222;2023-03-14T07:44:20;100454.34;;;13.87;100.00
32324;BME280;25666;44.350;9.222;2023-03-14T07:46:45;100450.78;;;13.90;100.00
32324;BME280;25666;44.350;9.222;2023-03-14T07:49:11;100460.75;;;13.87;100.00
32324;BME280;25666;44.350;9.222;2023-03-14T07:51:36;100462.66;;;13.83;100.00
32324;BME280;25666;44.350;9.222;2023-03-14T07:54:01;100464.66;;;13.83;100.00
32324;BME280;25666;44.350;9.222;2023-03-14T07:56:27;100465.78;;;13.78;100.00
32324;BME280;25666;44.350;9.222;2023-03-14T07:58:52;100471.72;;;13.73;100.00
32324;BME280;25666;44.350;9.222;2023-03-14T08:01:18;100471.34;;;13.75;100.00
32324;BME280;25666;44.350;9.222;2023-03-14T08:03:43;100473.34;;;13.74;100.00
32324;BME280;25666;44.350;9.222;2023-03-14T08:06:09;100483.38;;;13.79;100.00
32324;BME280;25666;44.350;9.222;2023-03-14T08:08:34;100475.47;;;13.84;100.00
32324;BME280;25666;44.350;9.222;2023-03-14T08:11:04;100485.28;;;14.01;100.00
32324;BME280;25666;44.350;9.222;2023-03-14T08:13:30;100478.81;;;13.93;100.00
32324;BME280;25666;44.350;9.222;2023-03-14T08:15:55;100475.03;;;14.12;100.00
32324;BME280;25666;44.350;9.222;2023-03-14T08:18:21;100467.81;;;14.41;100.00
32324;BME280;25666;44.350;9.222;2023-03-14T08:20:46;100463.94;;;14.53;100.00
32324;BME280;25666;44.350;9.222;2023-03-14T08:23:12;100466.41;;;14.58;100.00
32324;BME280;25666;44.350;9.222;2023-03-14T08:25:37;100461.78;;;14.39;100.00
32324;BME280;25666;44.350;9.222;2023-03-14T08:28:03;100451.00;;;14.37;100.00
32324;BME280;25666;44.350;9.222;2023-03-14T08:30:29;100456.72;;;14.52;100.00
32324;BME280;25666;44.350;9.222;2023-03-14T08:32:56;100457.91;;;14.51;100.00
32324;BME280;25666;44.350;9.222;2023-03-14T08:35:22;100441.09;;;14.51;100.00
32324;BME280;25666;44.350;9.222;2023-03-14T08:37:49;100432.09;;;14.68;100.00
32324;BME280;25666;44.350;9.222;2023-03-14T08:40:14;100435.81;;;14.82;100.00
32324;BME280;25666;44.350;9.222;2023-03-14T08:42:42;100438.25;;;14.84;100.00
32324;BME280;25666;44.350;9.222;2023-03-14T08:45:09;100432.69;;;14.87;100.00
32324;BME280;25666;44.350;9.222;2023-03-14T08:47:35;100426.09;;;15.17;100.00
32324;BME280;25666;44.350;9.222;2023-03-14T08:50:01;100418.91;;;15.19;100.00
32324;BME280;25666;44.350;9.222;2023-03-14T08:52:27;100420.56;;;15.27;100.00
32324;BME280;25666;44.350;9.222;2023-03-14T08:54:52;100410.66;;;15.40;100.00
32324;BME280;25666;44.350;9.222;2023-03-14T08:57:18;100423.78;;;15.29;100.00
32324;BME280;25666;44.350;9.222;2023-03-14T08:59:43;100425.84;;;15.36;100.00
32324;BME280;25666;44.350;9.222;2023-03-14T09:02:10;100425.44;;;15.34;100.00
32324;BME280;25666;44.350;9.222;2023-03-14T09:04:36;100421.91;;;15.44;100.00
32324;BME280;25666;44.350;9.222;2023-03-14T09:07:02;100420.59;;;15.31;100.00
32324;BME280;25666;44.350;9.222;2023-03-14T09:09:28;100413.50;;;15.47;100.00
32324;BME280;25666;44.350;9.222;2023-03-14T09:11:55;100410.63;;;15.37;100.00
32324;BME280;25666;44.350;9.222;2023-03-14T09:14:21;100408.38;;;15.53;100.00
32324;BME280;25666;44.350;9.222;2023-03-14T09:16:47;100413.56;;;15.54;100.00
32324;BME280;25666;44.350;9.222;2023-03-14T09:19:13;100405.44;;;15.42;100.00
32324;BME280;25666;44.350;9.222;2023-03-14T09:21:38;100415.06;;;15.38;100.00
32324;BME280;25666;44.350;9.222;2023-03-14T09:24:04;100413.03;;;15.38;100.00
32324;BME280;25666;44.350;9.222;2023-03-14T09:26:30;100416.88;;;15.13;100.00
32324;BME280;25666;44.350;9.222;2023-03-14T09:28:55;100409.69;;;15.15;100.00
32324;BME280;25666;44.350;9.222;2023-03-14T09:31:21;100423.59;;;15.05;100.00
32324;BME280;25666;44.350;9.222;2023-03-14T09:33:46;100429.66;;;15.10;100.00
32324;BME280;25666;44.350;9.222;2023-03-14T09:36:12;100428.44;;;15.08;100.00
32324;BME280;25666;44.350;9.222;2023-03-14T09:38:37;100418.34;;;14.96;100.00
32324;BME280;25666;44.350;9.222;2023-03-14T09:41:12;100435.78;;;14.75;100.00
32324;BME280;25666;44.350;9.222;2023-03-14T09:43:40;100424.91;;;14.70;100.00
32324;BME280;25666;44.350;9.222;2023-03-14T09:46:09;100424.16;;;14.77;100.00
32324;BME280;25666;44.350;9.222;2023-03-14T09:48:36;100430.13;;;14.72;100.00
32324;BME280;25666;44.350;9.222;2023-03-14T09:51:05;100428.88;;;14.66;100.00
32324;BME280;25666;44.350;9.222;2023-03-14T09:53:39;100436.34;;;14.55;100.00
32324;BME280;25666;44.350;9.222;2023-03-14T09:56:13;100435.50;;;14.51;100.00
32324;BME280;25666;44.350;9.222;2023-03-14T09:58:41;100439.59;;;14.60;100.00
32324;BME280;25666;44.350;9.222;2023-03-14T10:01:11;100434.03;;;14.64;100.00
32324;BME280;25666;44.350;9.222;2023-03-14T10:03:41;100428.50;;;14.71;100.00
32324;BME280;25666;44.350;9.222;2023-03-14T10:06:14;100429.31;;;14.71;100.00
32324;BME280;25666;44.350;9.222;2023-03-14T10:08:43;100426.25;;;14.87;100.00
32324;BME280;25666;44.350;9.222;2023-03-14T10:11:16;100416.66;;;14.88;100.00
32324;BME280;25666;44.350;9.222;2023-03-14T10:14:06;100420.28;;;14.92;100.00
32324;BME280;25666;44.350;9.222;2023-03-14T10:16:37;100413.91;;;14.95;100.00
32324;BME280;25666;44.350;9.222;2023-03-14T10:19:09;100416.34;;;14.96;100.00
32324;BME280;25666;44.350;9.222;2023-03-14T10:21:50;100422.31;;;14.95;100.00
32324;BME280;25666;44.350;9.222;2023-03-14T10:24:22;100413.38;;;14.79;100.00
32324;BME280;25666;44.350;9.222;2023-03-14T10:26:52;100412.72;;;14.96;100.00
32324;BME280;25666;44.350;9.222;2023-03-14T10:29:17;100412.19;;;14.80;100.00
32324;BME280;25666;44.350;9.222;2023-03-14T10:34:37;100413.88;;;14.91;100.00
32324;BME280;25666;44.350;9.222;2023-03-14T10:37:18;100409.59;;;15.05;100.00
32324;BME280;25666;44.350;9.222;2023-03-14T10:39:54;100397.72;;;15.22;100.00
32324;BME280;25666;44.350;9.222;2023-03-14T10:42:26;100405.16;;;15.03;100.00
32324;BME280;25666;44.350;9.222;2023-03-14T10:45:25;100405.22;;;15.11;100.00
32324;BME280;25666;44.350;9.222;2023-03-14T10:47:53;100406.31;;;14.95;100.00
32324;BME280;25666;44.350;9.222;2023-03-14T10:50:26;100404.81;;;15.09;100.00
32324;BME280;25666;44.350;9.222;2023-03-14T10:52:54;100401.63;;;15.10;100.00
32324;BME280;25666;44.350;9.222;2023-03-14T10:55:20;100408.88;;;15.15;100.00
32324;BME280;25666;44.350;9.222;2023-03-14T10:57:46;100404.00;;;15.08;100.00
32324;BME280;25666;44.350;9.222;2023-03-14T11:00:17;100407.75;;;15.26;100.00
32324;BME280;25666;44.350;9.222;2023-03-14T11:03:03;100409.31;;;15.20;100.00
32324;BME280;25666;44.350;9.222;2023-03-14T11:08:11;100403.03;;;15.37;100.00
32324;BME280;25666;44.350;9.222;2023-03-14T11:10:39;100396.53;;;15.26;100.00
32324;BME280;25666;44.350;9.222;2023-03-14T11:16:03;100402.16;;;15.30;100.00
32324;BME280;25666;44.350;9.222;2023-03-14T11:31:45;100408.97;;;15.25;100.00
32324;BME280;25666;44.350;9.222;2023-03-14T11:34:27;100407.78;;;15.33;100.00
32324;BME280;25666;44.350;9.222;2023-03-14T11:36:59;100412.59;;;15.33;100.00
32324;BME280;25666;44.350;9.222;2023-03-14T11:39:31;100407.72;;;15.23;100.00
32324;BME280;25666;44.350;9.222;2023-03-14T11:42:02;100404.75;;;15.52;100.00
32324;BME280;25666;44.350;9.222;2023-03-14T11:44:37;100408.75;;;15.51;100.00
32324;BME280;25666;44.350;9.222;2023-03-14T11:47:08;100407.19;;;15.61;100.00
32324;BME280;25666;44.350;9.222;2023-03-14T11:49:39;100409.59;;;15.59;100.00
32324;BME280;25666;44.350;9.222;2023-03-14T11:52:10;100403.94;;;15.52;100.00
32324;BME280;25666;44.350;9.222;2023-03-14T11:57:09;100402.50;;;15.86;100.00
32324;BME280;25666;44.350;9.222;2023-03-14T12:10:54;100387.00;;;15.41;100.00
32324;BME280;25666;44.350;9.222;2023-03-14T12:13:22;100374.97;;;15.37;100.00
32324;BME280;25666;44.350;9.222;2023-03-14T12:15:56;100373.25;;;15.19;100.00
32324;BME280;25666;44.350;9.222;2023-03-14T12:18:35;100366.13;;;15.28;100.00
32324;BME280;25666;44.350;9.222;2023-03-14T12:21:06;100355.84;;;15.50;100.00
32324;BME280;25666;44.350;9.222;2023-03-14T12:23:51;100351.75;;;15.40;100.00
32324;BME280;25666;44.350;9.222;2023-03-14T12:26:26;100352.25;;;15.49;100.00
32324;BME280;25666;44.350;9.222;2023-03-14T12:42:04;100307.53;;;15.99;100.00
32324;BME280;25666;44.350;9.222;2023-03-14T12:46:59;100286.28;;;16.01;100.00
32324;BME280;25666;44.350;9.222;2023-03-14T12:49:30;100277.06;;;15.97;100.00
32324;BME280;25666;44.350;9.222;2023-03-14T12:52:00;100268.63;;;16.04;100.00
32324;BME280;25666;44.350;9.222;2023-03-14T12:54:42;100263.81;;;16.05;100.00
32324;BME280;25666;44.350;9.222;2023-03-14T13:00:20;100242.91;;;15.71;100.00
32324;BME280;25666;44.350;9.222;2023-03-14T13:02:47;100246.13;;;15.83;100.00
32324;BME280;25666;44.350;9.222;2023-03-14T13:05:21;100240.56;;;15.97;100.00
32324;BME280;25666;44.350;9.222;2023-03-14T13:10:24;100232.88;;;15.63;100.00
32324;BME280;25666;44.350;9.222;2023-03-14T13:15:45;100225.69;;;15.86;100.00
32324;BME280;25666;44.350;9.222;2023-03-14T13:18:26;100225.69;;;15.83;100.00
32324;BME280;25666;44.350;9.222;2023-03-14T13:20:59;100226.91;;;15.92;100.00
32324;BME280;25666;44.350;9.222;2023-03-14T13:23:29;100215.31;;;15.97;100.00
32324;BME280;25666;44.350;9.222;2023-03-14T13:25:56;100221.31;;;15.96;100.00
32324;BME280;25666;44.350;9.222;2023-03-14T13:28:22;100210.06;;;15.96;100.00
32324;BME280;25666;44.350;9.222;2023-03-14T13:30:49;100214.06;;;15.95;100.00
32324;BME280;25666;44.350;9.222;2023-03-14T13:33:22;100214.88;;;15.92;100.00
32324;BME280;25666;44.350;9.222;2023-03-14T13:35:58;100216.88;;;15.81;100.00
32324;BME280;25666;44.350;9.222;2023-03-14T13:38:28;100214.84;;;15.71;100.00
32324;BME280;25666;44.350;9.222;2023-03-14T13:40:56;100211.22;;;15.56;100.00
32324;BME280;25666;44.350;9.222;2023-03-14T13:43:29;100218.06;;;15.69;100.00
32324;BME280;25666;44.350;9.222;2023-03-14T13:46:21;100217.63;;;15.64;100.00
32324;BME280;25666;44.350;9.222;2023-03-14T13:48:50;100219.63;;;15.60;100.00
32324;BME280;25666;44.350;9.222;2023-03-14T13:51:20;100219.63;;;15.52;100.00
32324;BME280;25666;44.350;9.222;2023-03-14T13:53:54;100212.38;;;15.48;100.00
32324;BME280;25666;44.350;9.222;2023-03-14T13:56:25;100214.75;;;15.46;100.00
32324;BME280;25666;44.350;9.222;2023-03-14T13:58:51;100210.69;;;15.29;100.00
32324;BME280;25666;44.350;9.222;2023-03-14T14:01:31;100205.19;;;15.54;100.00